sensor_id;sensor_type;location;lat;lon;timestamp;pressure;altitude;pressure_sealevel;temperature;humidity
53900;BME280;40509;32.858;-116.858;2023-02-27T00:01:21;98552.56;;;16.63;44.40
53900;BME280;40509;32.858;-116.858;2023-02-27T00:03:48;98547.16;;;16.66;44.44
53900;BME280;40509;32.858;-116.858;2023-02-27T00:06:15;98545.38;;;16.66;44.38
53900;BME280;40509;32.858;-116.858;2023-02-27T00:08:43;98547.97;;;16.66;44.43
53900;BME280;40509;32.858;-116.858;2023-02-27T00:11:10;98538.50;;;16.65;44.42
53900;BME280;40509;32.858;-116.858;2023-02-27T00:13:37;98545.38;;;16.66;44.24
53900;BME280;40509;32.858;-116.858;2023-02-27T00:16:07;98542.06;;;16.64;44.11
53900;BME280;40509;32.858;-116.858;2023-02-27T00:18:34;98544.44;;;16.67;44.31
53900;BME280;40509;32.858;-116.858;2023-02-27T00:21:02;98539.22;;;16.67;44.28
53900;BME280;40509;32.858;-116.858;2023-02-27T00:23:29;98531.31;;;16.69;44.34
53900;BME280;40509;32.858;-116.858;2023-02-27T00:25:56;98536.50;;;16.69;44.30
53900;BME280;40509;32.858;-116.858;2023-02-27T00:28:27;98538.38;;;16.67;44.31
53900;BME280;40509;32.858;-116.858;2023-02-27T00:30:54;98544.44;;;16.67;44.51
53900;BME280;40509;32.858;-116.858;2023-02-27T00:33:22;98540.97;;;16.67;44.30
53900;BME280;40509;32.858;-116.858;2023-02-27T00:35:57;98543.59;;;16.67;44.36
53900;BME280;40509;32.858;-116.858;2023-02-27T00:38:25;98539.34;;;16.66;44.40
53900;BME280;40509;32.858;-116.858;2023-02-27T00:40:53;98541.94;;;16.66;44.43
53900;BME280;40509;32.858;-116.858;2023-02-27T00:43:20;98547.16;;;16.66;44.47
53900;BME280;40509;32.858;-116.858;2023-02-27T00:45:48;98545.50;;;16.65;44.45
53900;BME280;40509;32.858;-116.858;2023-02-27T00:48:15;98549.03;;;16.64;44.42
53900;BME280;40509;32.858;-116.858;2023-02-27T00:50:43;98547.34;;;16.63;44.42
53900;BME280;40509;32.858;-116.858;2023-02-27T00:53:10;98551.63;;;16.64;44.56
53900;BME280;40509;32.858;-116.858;2023-02-27T00:55:37;98550.91;;;16.62;44.60
53900;BME280;40509;32.858;-116.858;2023-02-27T00:58:04;98547.34;;;16.63;44.63
53900;BME280;40509;32.858;-116.858;2023-02-27T01:00:32;98537.88;;;16.62;44.58
53900;BME280;40509;32.858;-116.858;2023-02-27T01:02:59;98536.91;;;16.63;44.47
53900;BME280;40509;32.858;-116.858;2023-02-27T01:05:27;98541.31;;;16.62;44.52
53900;BME280;40509;32.858;-116.858;2023-02-27T01:07:54;98535.28;;;16.62;44.58
53900;BME280;40509;32.858;-116.858;2023-02-27T01:10:21;98534.53;;;16.60;44.67
53900;BME280;40509;32.858;-116.858;2023-02-27T01:12:48;98540.69;;;16.59;44.57
53900;BME280;40509;32.858;-116.858;2023-02-27T01:15:16;98539.75;;;16.60;44.77
53900;BME280;40509;32.858;-116.858;2023-02-27T01:17:43;98540.69;;;16.59;44.68
53900;BME280;40509;32.858;-116.858;2023-02-27T01:20:11;98541.63;;;16.58;44.70
53900;BME280;40509;32.858;-116.858;2023-02-27T01:22:38;98546.00;;;16.57;44.75
53900;BME280;40509;32.858;-116.858;2023-02-27T01:25:06;98550.38;;;16.57;44.64
53900;BME280;40509;32.858;-116.858;2023-02-27T01:27:34;98553.00;;;16.57;44.79
53900;BME280;40509;32.858;-116.858;2023-02-27T01:30:02;98548.81;;;16.54;44.82
53900;BME280;40509;32.858;-116.858;2023-02-27T01:32:29;98551.53;;;16.52;44.76
53900;BME280;40509;32.858;-116.858;2023-02-27T01:34:57;98543.81;;;16.51;44.89
53900;BME280;40509;32.858;-116.858;2023-02-27T01:37:26;98543.81;;;16.51;44.86
53900;BME280;40509;32.858;-116.858;2023-02-27T01:39:53;98536.13;;;16.49;45.02
53900;BME280;40509;32.858;-116.858;2023-02-27T01:42:25;98543.19;;;16.47;45.06
53900;BME280;40509;32.858;-116.858;2023-02-27T01:47:41;98536.31;;;16.46;44.95
53900;BME280;40509;32.858;-116.858;2023-02-27T01:50:11;98535.16;;;16.50;44.93
53900;BME280;40509;32.858;-116.858;2023-02-27T01:52:40;98533.28;;;16.52;44.82
53900;BME280;40509;32.858;-116.858;2023-02-27T01:55:12;98537.56;;;16.54;44.97
53900;BME280;40509;32.858;-116.858;2023-02-27T01:57:42;98536.72;;;16.53;44.88
53900;BME280;40509;32.858;-116.858;2023-02-27T02:00:13;98542.78;;;16.54;44.90
53900;BME280;40509;32.858;-116.858;2023-02-27T02:02:46;98535.38;;;16.47;44.99
53900;BME280;40509;32.858;-116.858;2023-02-27T02:05:15;98533.59;;;16.48;44.96
53900;BME280;40509;32.858;-116.858;2023-02-27T02:07:43;98536.31;;;16.46;45.10
53900;BME280;40509;32.858;-116.858;2023-02-27T02:10:14;98536.41;;;16.45;45.05
53900;BME280;40509;32.858;-116.858;2023-02-27T02:12:42;98534.84;;;16.42;45.10
53900;BME280;40509;32.858;-116.858;2023-02-27T02:15:11;98541.72;;;16.43;45.13
53900;BME280;40509;32.858;-116.858;2023-02-27T02:17:58;98545.25;;;16.42;45.15
53900;BME280;40509;32.858;-116.858;2023-02-27T02:26:35;98533.16;;;16.41;45.20
53900;BME280;40509;32.858;-116.858;2023-02-27T02:44:19;98529.53;;;16.31;45.44
53900;BME280;40509;32.858;-116.858;2023-02-27T02:47:07;98530.56;;;16.28;45.55
53900;BME280;40509;32.858;-116.858;2023-02-27T02:49:50;98533.16;;;16.28;45.42
53900;BME280;40509;32.858;-116.858;2023-02-27T02:53:02;98536.19;;;16.35;45.18
53900;BME280;40509;32.858;-116.858;2023-02-27T02:55:36;98532.75;;;16.34;45.22
53900;BME280;40509;32.858;-116.858;2023-02-27T02:58:27;98545.88;;;16.33;45.42
53900;BME280;40509;32.858;-116.858;2023-02-27T03:01:23;98542.34;;;16.34;45.46
53900;BME280;40509;32.858;-116.858;2023-02-27T03:03:56;98547.53;;;16.34;45.40
53900;BME280;40509;32.858;-116.858;2023-02-27T03:06:39;98552.97;;;16.31;45.36
53900;BME280;40509;32.858;-116.858;2023-02-27T03:09:22;98556.72;;;16.27;45.50
53900;BME280;40509;32.858;-116.858;2023-02-27T03:11:54;98558.47;;;16.26;45.32
53900;BME280;40509;32.858;-116.858;2023-02-27T03:14:36;98566.38;;;16.25;45.60
53900;BME280;40509;32.858;-116.858;2023-02-27T03:17:11;98564.09;;;16.20;45.43
53900;BME280;40509;32.858;-116.858;2023-02-27T03:19:55;98559.94;;;16.17;45.63
53900;BME280;40509;32.858;-116.858;2023-02-27T03:22:31;98566.72;;;16.20;45.63
53900;BME280;40509;32.858;-116.858;2023-02-27T03:25:03;98575.56;;;16.17;45.49
53900;BME280;40509;32.858;-116.858;2023-02-27T03:27:46;98580.13;;;16.14;45.51
53900;BME280;40509;32.858;-116.858;2023-02-27T03:30:24;98583.06;;;16.22;45.32
53900;BME280;40509;32.858;-116.858;2023-02-27T03:33:19;98580.97;;;16.14;45.57
53900;BME280;40509;32.858;-116.858;2023-02-27T03:36:10;98572.31;;;16.14;45.54
53900;BME280;40509;32.858;-116.858;2023-02-27T03:38:53;98575.00;;;16.12;45.53
53900;BME280;40509;32.858;-116.858;2023-02-27T03:41:26;98585.22;;;16.15;45.51
53900;BME280;40509;32.858;-116.858;2023-02-27T03:46:45;98580.88;;;16.16;45.22
53900;BME280;40509;32.858;-116.858;2023-02-27T03:49:12;98575.75;;;16.14;45.48
53900;BME280;40509;32.858;-116.858;2023-02-27T03:51:40;98571.47;;;16.13;45.33
53900;BME280;40509;32.858;-116.858;2023-02-27T03:54:15;98580.97;;;16.14;45.38
53900;BME280;40509;32.858;-116.858;2023-02-27T03:57:00;98575.13;;;16.11;45.47
53900;BME280;40509;32.858;-116.858;2023-02-27T03:59:29;98578.47;;;16.13;45.45
53900;BME280;40509;32.858;-116.858;2023-02-27T04:01:58;98584.59;;;16.12;45.25
53900;BME280;40509;32.858;-116.858;2023-02-27T04:04:27;98588.88;;;16.13;45.42
53900;BME280;40509;32.858;-116.858;2023-02-27T04:13:15;98582.00;;;16.12;45.39
53900;BME280;40509;32.858;-116.858;2023-02-27T04:26:50;98593.78;;;16.17;45.15
53900;BME280;40509;32.858;-116.858;2023-02-27T04:29:50;98596.69;;;17.05;42.84
53900;BME280;40509;32.858;-116.858;2023-02-27T04:34:59;98601.69;;;17.70;41.54
53900;BME280;40509;32.858;-116.858;2023-02-27T04:37:41;98606.22;;;17.93;40.95
53900;BME280;40509;32.858;-116.858;2023-02-27T04:40:18;98605.94;;;18.09;40.75
53900;BME280;40509;32.858;-116.858;2023-02-27T04:42:50;98607.47;;;18.35;40.56
53900;BME280;40509;32.858;-116.858;2023-02-27T04:45:22;98608.31;;;18.47;40.55
53900;BME280;40509;32.858;-116.858;2023-02-27T04:47:59;98611.09;;;18.68;40.03
53900;BME280;40509;32.858;-116.858;2023-02-27T04:50:53;98611.72;;;18.83;39.52
53900;BME280;40509;32.858;-116.858;2023-02-27T04:53:56;98611.06;;;18.22;40.70
53900;BME280;40509;32.858;-116.858;2023-02-27T04:56:37;98613.19;;;17.55;42.18
53900;BME280;40509;32.858;-116.858;2023-02-27T04:59:18;98623.69;;;17.29;42.70
53900;BME280;40509;32.858;-116.858;2023-02-27T05:01:58;98627.03;;;17.18;42.91
53900;BME280;40509;32.858;-116.858;2023-02-27T05:04:32;98626.03;;;17.08;43.21
53900;BME280;40509;32.858;-116.858;2023-02-27T05:07:06;98625.50;;;17.03;43.19
53900;BME280;40509;32.858;-116.858;2023-02-27T05:10:44;98628.63;;;16.95;43.57
53900;BME280;40509;32.858;-116.858;2023-02-27T05:13:13;98631.56;;;16.91;43.36
53900;BME280;40509;32.858;-116.858;2023-02-27T05:15:50;98631.09;;;16.84;43.68
53900;BME280;40509;32.858;-116.858;2023-02-27T05:18:20;98626.41;;;16.76;44.02
53900;BME280;40509;32.858;-116.858;2023-02-27T05:21:15;98621.63;;;16.70;44.15
53900;BME280;40509;32.858;-116.858;2023-02-27T05:35:27;98606.06;;;16.56;44.32
53900;BME280;40509;32.858;-116.858;2023-02-27T05:40:42;98612.19;;;16.55;44.43
53900;BME280;40509;32.858;-116.858;2023-02-27T05:43:20;98607.41;;;16.48;44.34
53900;BME280;40509;32.858;-116.858;2023-02-27T05:45:53;98597.69;;;16.50;44.27
53900;BME280;40509;32.858;-116.858;2023-02-27T05:48:33;98608.44;;;16.46;44.37
53900;BME280;40509;32.858;-116.858;2023-02-27T05:51:04;98609.38;;;16.45;44.41
53900;BME280;40509;32.858;-116.858;2023-02-27T05:53:39;98599.25;;;16.40;44.47
53900;BME280;40509;32.858;-116.858;2023-02-27T05:56:08;98601.75;;;16.42;44.39
53900;BME280;40509;32.858;-116.858;2023-02-27T05:58:42;98602.59;;;16.42;44.47
53900;BME280;40509;32.858;-116.858;2023-02-27T06:01:12;98610.41;;;16.42;44.41
53900;BME280;40509;32.858;-116.858;2023-02-27T06:03:39;98602.59;;;16.42;44.39
53900;BME280;40509;32.858;-116.858;2023-02-27T06:06:12;98612.91;;;16.44;44.30
53900;BME280;40509;32.858;-116.858;2023-02-27T06:08:41;98617.50;;;16.40;44.54
53900;BME280;40509;32.858;-116.858;2023-02-27T06:11:08;98621.16;;;16.38;44.54
53900;BME280;40509;32.858;-116.858;2023-02-27T06:13:36;98616.97;;;16.35;44.46
53900;BME280;40509;32.858;-116.858;2023-02-27T06:16:03;98611.84;;;16.33;44.44
53900;BME280;40509;32.858;-116.858;2023-02-27T06:18:31;98623.31;;;16.31;44.52
53900;BME280;40509;32.858;-116.858;2023-02-27T06:20:58;98612.16;;;16.29;44.59
53900;BME280;40509;32.858;-116.858;2023-02-27T06:23:25;98610.56;;;16.26;44.64
53900;BME280;40509;32.858;-116.858;2023-02-27T06:25:52;98613.09;;;16.28;44.75
53900;BME280;40509;32.858;-116.858;2023-02-27T06:28:20;98608.06;;;16.25;44.63
53900;BME280;40509;32.858;-116.858;2023-02-27T06:30:49;98603.81;;;16.24;44.60
53900;BME280;40509;32.858;-116.858;2023-02-27T06:33:18;98597.13;;;16.19;44.76
53900;BME280;40509;32.858;-116.858;2023-02-27T06:35:49;98601.50;;;16.19;44.97
53900;BME280;40509;32.858;-116.858;2023-02-27T06:38:16;98592.97;;;16.17;44.74
53900;BME280;40509;32.858;-116.858;2023-02-27T06:40:43;98598.19;;;16.17;44.86
53900;BME280;40509;32.858;-116.858;2023-02-27T06:43:10;98596.59;;;16.14;44.70
53900;BME280;40509;32.858;-116.858;2023-02-27T06:45:38;98594.19;;;16.11;44.69
53900;BME280;40509;32.858;-116.858;2023-02-27T06:48:05;98593.34;;;16.11;44.94
53900;BME280;40509;32.858;-116.858;2023-02-27T06:50:32;98590.84;;;16.09;44.74
53900;BME280;40509;32.858;-116.858;2023-02-27T06:52:59;98588.34;;;16.08;44.98
53900;BME280;40509;32.858;-116.858;2023-02-27T06:55:27;98586.88;;;16.04;44.78
53900;BME280;40509;32.858;-116.858;2023-02-27T06:57:54;98591.06;;;16.06;44.83
53900;BME280;40509;32.858;-116.858;2023-02-27T07:00:21;98592.72;;;16.07;44.89
53900;BME280;40509;32.858;-116.858;2023-02-27T07:02:49;98590.09;;;16.07;44.85
53900;BME280;40509;32.858;-116.858;2023-02-27T07:05:16;98591.66;;;16.10;44.61
53900;BME280;40509;32.858;-116.858;2023-02-27T07:07:43;98590.09;;;16.07;44.92
53900;BME280;40509;32.858;-116.858;2023-02-27T07:10:12;98595.41;;;16.06;44.80
53900;BME280;40509;32.858;-116.858;2023-02-27T07:12:40;98603.78;;;16.11;44.66
53900;BME280;40509;32.858;-116.858;2023-02-27T07:15:10;98593.84;;;16.03;44.84
53900;BME280;40509;32.858;-116.858;2023-02-27T07:17:38;98598.53;;;15.98;45.00
53900;BME280;40509;32.858;-116.858;2023-02-27T07:20:07;98601.22;;;15.96;45.05
53900;BME280;40509;32.858;-116.858;2023-02-27T07:22:37;98602.34;;;15.92;45.07
53900;BME280;40509;32.858;-116.858;2023-02-27T07:25:05;98595.19;;;15.96;45.04
53900;BME280;40509;32.858;-116.858;2023-02-27T07:27:33;98598.16;;;15.90;44.99
53900;BME280;40509;32.858;-116.858;2023-02-27T07:30:01;98604.44;;;15.87;45.10
53900;BME280;40509;32.858;-116.858;2023-02-27T07:32:28;98597.44;;;15.88;45.06
53900;BME280;40509;32.858;-116.858;2023-02-27T07:34:56;98602.66;;;15.88;45.13
53900;BME280;40509;32.858;-116.858;2023-02-27T07:37:23;98599.41;;;15.84;45.07
53900;BME280;40509;32.858;-116.858;2023-02-27T07:39:50;98602.22;;;15.81;45.22
53900;BME280;40509;32.858;-116.858;2023-02-27T07:42:17;98594.09;;;15.85;45.05
53900;BME280;40509;32.858;-116.858;2023-02-27T07:44:45;98595.22;;;15.81;45.09
53900;BME280;40509;32.858;-116.858;2023-02-27T07:47:38;98600.53;;;15.80;45.16
53900;BME280;40509;32.858;-116.858;2023-02-27T07:50:06;98599.66;;;15.79;45.22
53900;BME280;40509;32.858;-116.858;2023-02-27T07:52:33;98602.22;;;15.81;45.05
53900;BME280;40509;32.858;-116.858;2023-02-27T07:55:00;98612.97;;;15.75;45.13
53900;BME280;40509;32.858;-116.858;2023-02-27T07:57:27;98605.81;;;15.78;44.91
53900;BME280;40509;32.858;-116.858;2023-02-27T07:59:54;98607.47;;;15.79;44.95
53900;BME280;40509;32.858;-116.858;2023-02-27T08:02:22;98610.34;;;15.75;45.04
53900;BME280;40509;32.858;-116.858;2023-02-27T08:04:52;98605.91;;;15.77;44.87
53900;BME280;40509;32.858;-116.858;2023-02-27T08:07:19;98605.16;;;15.75;45.00
53900;BME280;40509;32.858;-116.858;2023-02-27T08:09:46;98605.25;;;15.73;45.03
53900;BME280;40509;32.858;-116.858;2023-02-27T08:12:13;98601.00;;;15.72;44.86
53900;BME280;40509;32.858;-116.858;2023-02-27T08:14:41;98606.94;;;15.74;44.99
53900;BME280;40509;32.858;-116.858;2023-02-27T08:17:08;98605.09;;;15.76;44.95
53900;BME280;40509;32.858;-116.858;2023-02-27T08:19:35;98609.53;;;15.74;44.99
53900;BME280;40509;32.858;-116.858;2023-02-27T08:22:03;98616.53;;;15.74;45.01
53900;BME280;40509;32.858;-116.858;2023-02-27T08:24:30;98615.13;;;15.68;45.16
53900;BME280;40509;32.858;-116.858;2023-02-27T08:26:57;98610.00;;;15.66;45.09
53900;BME280;40509;32.858;-116.858;2023-02-27T08:29:25;98597.94;;;15.65;45.19
53900;BME280;40509;32.858;-116.858;2023-02-27T08:31:53;98609.19;;;15.66;44.98
53900;BME280;40509;32.858;-116.858;2023-02-27T08:34:20;98605.22;;;15.60;45.22
53900;BME280;40509;32.858;-116.858;2023-02-27T08:36:47;98601.03;;;15.58;45.23
53900;BME280;40509;32.858;-116.858;2023-02-27T08:39:15;98600.94;;;15.59;45.20
53900;BME280;40509;32.858;-116.858;2023-02-27T08:41:43;98598.31;;;15.59;45.14
53900;BME280;40509;32.858;-116.858;2023-02-27T08:44:11;98602.81;;;15.57;45.17
53900;BME280;40509;32.858;-116.858;2023-02-27T08:46:38;98612.91;;;15.62;45.03
53900;BME280;40509;32.858;-116.858;2023-02-27T08:49:06;98612.25;;;15.58;44.88
53900;BME280;40509;32.858;-116.858;2023-02-27T08:51:36;98600.38;;;15.54;45.04
53900;BME280;40509;32.858;-116.858;2023-02-27T08:54:03;98605.88;;;15.49;45.36
53900;BME280;40509;32.858;-116.858;2023-02-27T08:56:31;98602.16;;;15.54;45.19
53900;BME280;40509;32.858;-116.858;2023-02-27T08:59:00;98590.81;;;15.55;45.18
53900;BME280;40509;32.858;-116.858;2023-02-27T09:01:28;98589.03;;;15.55;45.09
53900;BME280;40509;32.858;-116.858;2023-02-27T09:04:03;98584.97;;;15.51;45.25
53900;BME280;40509;32.858;-116.858;2023-02-27T09:06:34;98582.16;;;15.54;45.04
53900;BME280;40509;32.858;-116.858;2023-02-27T09:09:01;98585.06;;;15.49;45.13
53900;BME280;40509;32.858;-116.858;2023-02-27T09:11:29;98584.97;;;15.51;45.02
53900;BME280;40509;32.858;-116.858;2023-02-27T09:13:56;98583.09;;;15.53;45.09
53900;BME280;40509;32.858;-116.858;2023-02-27T09:16:24;98575.59;;;15.48;45.02
53900;BME280;40509;32.858;-116.858;2023-02-27T09:18:52;98572.78;;;15.51;45.25
53900;BME280;40509;32.858;-116.858;2023-02-27T09:21:19;98578.09;;;15.50;45.12
53900;BME280;40509;32.858;-116.858;2023-02-27T09:23:47;98573.81;;;15.49;45.08
53900;BME280;40509;32.858;-116.858;2023-02-27T09:26:14;98568.69;;;15.47;45.14
53900;BME280;40509;32.858;-116.858;2023-02-27T09:28:43;98574.84;;;15.46;45.00
53900;BME280;40509;32.858;-116.858;2023-02-27T09:31:10;98565.66;;;15.41;45.27
53900;BME280;40509;32.858;-116.858;2023-02-27T09:33:38;98569.28;;;15.38;45.33
53900;BME280;40509;32.858;-116.858;2023-02-27T09:36:06;98556.00;;;15.43;45.01
53900;BME280;40509;32.858;-116.858;2023-02-27T09:38:34;98553.59;;;15.40;45.28
53900;BME280;40509;32.858;-116.858;2023-02-27T09:41:03;98547.53;;;15.39;45.53
53900;BME280;40509;32.858;-116.858;2023-02-27T09:43:45;98541.41;;;15.40;45.24
53900;BME280;40509;32.858;-116.858;2023-02-27T09:46:18;98534.84;;;15.34;45.41
53900;BME280;40509;32.858;-116.858;2023-02-27T09:48:53;98530.44;;;15.35;45.48
53900;BME280;40509;32.858;-116.858;2023-02-27T09:51:21;98529.06;;;15.29;45.30
53900;BME280;40509;32.858;-116.858;2023-02-27T09:54:00;98536.06;;;15.29;45.36
53900;BME280;40509;32.858;-116.858;2023-02-27T10:05:03;98514.22;;;15.31;45.38
53900;BME280;40509;32.858;-116.858;2023-02-27T10:07:51;98529.19;;;15.28;45.13
53900;BME280;40509;32.858;-116.858;2023-02-27T10:10:45;98524.06;;;15.26;45.42
53900;BME280;40509;32.858;-116.858;2023-02-27T10:13:24;98524.91;;;15.27;45.39
53900;BME280;40509;32.858;-116.858;2023-02-27T10:15:57;98518.41;;;15.20;45.35
53900;BME280;40509;32.858;-116.858;2023-02-27T10:18:52;98521.28;;;15.29;45.26
53900;BME280;40509;32.858;-116.858;2023-02-27T10:21:25;98514.50;;;15.27;45.22
53900;BME280;40509;32.858;-116.858;2023-02-27T10:26:51;98512.81;;;15.26;45.29
53900;BME280;40509;32.858;-116.858;2023-02-27T10:29:33;98510.97;;;15.28;45.14
53900;BME280;40509;32.858;-116.858;2023-02-27T10:32:19;98509.50;;;15.24;45.25
53900;BME280;40509;32.858;-116.858;2023-02-27T10:34:57;98509.69;;;15.21;45.46
53900;BME280;40509;32.858;-116.858;2023-02-27T10:37:26;98512.09;;;15.24;45.29
53900;BME280;40509;32.858;-116.858;2023-02-27T10:39:59;98508.03;;;15.20;45.26
53900;BME280;40509;32.858;-116.858;2023-02-27T10:42:33;98492.41;;;15.20;45.33
53900;BME280;40509;32.858;-116.858;2023-02-27T10:45:05;98492.78;;;15.13;45.25
53900;BME280;40509;32.858;-116.858;2023-02-27T10:47:41;98493.72;;;15.12;45.33
53900;BME280;40509;32.858;-116.858;2023-02-27T10:50:28;98484.16;;;15.13;45.31
53900;BME280;40509;32.858;-116.858;2023-02-27T10:53:01;98483.81;;;15.05;45.51
53900;BME280;40509;32.858;-116.858;2023-02-27T10:55:33;98479.06;;;15.11;45.54
53900;BME280;40509;32.858;-116.858;2023-02-27T10:58:03;98484.44;;;15.08;45.26
53900;BME280;40509;32.858;-116.858;2023-02-27T11:00:52;98479.53;;;15.04;45.50
53900;BME280;40509;32.858;-116.858;2023-02-27T11:03:28;98479.63;;;15.02;45.74
53900;BME280;40509;32.858;-116.858;2023-02-27T11:06:13;98486.22;;;15.08;45.33
53900;BME280;40509;32.858;-116.858;2023-02-27T11:11:36;98476.94;;;15.04;45.41
53900;BME280;40509;32.858;-116.858;2023-02-27T11:16:57;98476.19;;;15.01;45.24
53900;BME280;40509;32.858;-116.858;2023-02-27T11:19:37;98478.78;;;15.01;45.44
53900;BME280;40509;32.858;-116.858;2023-02-27T11:22:20;98472.97;;;14.98;45.54
53900;BME280;40509;32.858;-116.858;2023-02-27T11:24:51;98483.97;;;15.01;45.54
53900;BME280;40509;32.858;-116.858;2023-02-27T11:27:25;98490.03;;;15.02;45.23
53900;BME280;40509;32.858;-116.858;2023-02-27T11:30:04;98485.50;;;15.06;45.18
53900;BME280;40509;32.858;-116.858;2023-02-27T11:32:43;98486.13;;;15.09;45.17
53900;BME280;40509;32.858;-116.858;2023-02-27T11:37:50;98481.31;;;15.03;45.38
53900;BME280;40509;32.858;-116.858;2023-02-27T11:40:19;98489.94;;;15.04;45.37
53900;BME280;40509;32.858;-116.858;2023-02-27T11:45:39;98484.72;;;15.04;45.21
53900;BME280;40509;32.858;-116.858;2023-02-27T11:56:07;98481.44;;;14.87;45.31
53900;BME280;40509;32.858;-116.858;2023-02-27T11:58:43;98481.13;;;14.92;45.37
53900;BME280;40509;32.858;-116.858;2023-02-27T12:01:22;98481.53;;;14.86;45.42
53900;BME280;40509;32.858;-116.858;2023-02-27T12:04:01;98477.69;;;14.91;45.40
53900;BME280;40509;32.858;-116.858;2023-02-27T12:06:36;98486.44;;;14.90;45.39
53900;BME280;40509;32.858;-116.858;2023-02-27T12:11:55;98481.44;;;14.87;45.41
53900;BME280;40509;32.858;-116.858;2023-02-27T12:14:39;98484.38;;;14.81;45.30
53900;BME280;40509;32.858;-116.858;2023-02-27T12:17:14;98481.69;;;14.82;45.15
53900;BME280;40509;32.858;-116.858;2023-02-27T12:22:35;98478.06;;;14.85;45.27
53900;BME280;40509;32.858;-116.858;2023-02-27T12:25:20;98483.56;;;14.80;45.42
53900;BME280;40509;32.858;-116.858;2023-02-27T12:30:26;98479.19;;;14.81;45.24
53900;BME280;40509;32.858;-116.858;2023-02-27T12:35:38;98474.09;;;14.79;45.00
53900;BME280;40509;32.858;-116.858;2023-02-27T12:38:12;98470.56;;;14.80;45.24
53900;BME280;40509;32.858;-116.858;2023-02-27T12:40:58;98470.16;;;14.87;45.24
53900;BME280;40509;32.858;-116.858;2023-02-27T12:46:14;98470.81;;;14.90;45.21
53900;BME280;40509;32.858;-116.858;2023-02-27T12:49:10;98468.22;;;14.76;44.94
53900;BME280;40509;32.858;-116.858;2023-02-27T12:51:54;98466.03;;;14.84;45.06
53900;BME280;40509;32.858;-116.858;2023-02-27T12:58:04;98468.34;;;14.74;45.08
53900;BME280;40509;32.858;-116.858;2023-02-27T13:00:30;98467.50;;;14.74;45.21
53900;BME280;40509;32.858;-116.858;2023-02-27T13:03:04;98479.69;;;14.73;44.94
53900;BME280;40509;32.858;-116.858;2023-02-27T13:11:29;98483.19;;;14.72;45.19
53900;BME280;40509;32.858;-116.858;2023-02-27T13:16:54;98485.81;;;14.72;45.12
53900;BME280;40509;32.858;-116.858;2023-02-27T13:19:27;98477.69;;;14.62;44.94
53900;BME280;40509;32.858;-116.858;2023-02-27T13:22:03;98478.19;;;14.69;45.17
53900;BME280;40509;32.858;-116.858;2023-02-27T13:24:45;98488.75;;;14.66;44.89
53900;BME280;40509;32.858;-116.858;2023-02-27T13:27:26;98482.03;;;14.62;44.98
53900;BME280;40509;32.858;-116.858;2023-02-27T13:32:49;98488.75;;;14.66;45.02
53900;BME280;40509;32.858;-116.858;2023-02-27T13:35:46;98490.63;;;14.64;45.15
53900;BME280;40509;32.858;-116.858;2023-02-27T13:43:47;98496.56;;;14.66;44.95
53900;BME280;40509;32.858;-116.858;2023-02-27T13:46:28;98496.19;;;14.72;44.77
53900;BME280;40509;32.858;-116.858;2023-02-27T13:56:47;98498.31;;;14.65;45.01
53900;BME280;40509;32.858;-116.858;2023-02-27T13:59:33;98498.50;;;14.62;45.15
53900;BME280;40509;32.858;-116.858;2023-02-27T14:04:50;98508.13;;;14.60;44.97
53900;BME280;40509;32.858;-116.858;2023-02-27T14:07:28;98510.06;;;14.57;45.05
53900;BME280;40509;32.858;-116.858;2023-02-27T14:10:07;98513.22;;;14.62;44.81
53900;BME280;40509;32.858;-116.858;2023-02-27T14:12:37;98514.09;;;14.62;44.95
53900;BME280;40509;32.858;-116.858;2023-02-27T14:17:43;98518.91;;;14.54;45.02
53900;BME280;40509;32.858;-116.858;2023-02-27T14:23:19;98524.00;;;14.56;44.96
53900;BME280;40509;32.858;-116.858;2023-02-27T14:28:35;98514.72;;;14.52;45.22
53900;BME280;40509;32.858;-116.858;2023-02-27T14:31:21;98513.13;;;14.49;44.93
53900;BME280;40509;32.858;-116.858;2023-02-27T14:33:54;98516.75;;;14.46;45.14
53900;BME280;40509;32.858;-116.858;2023-02-27T14:36:27;98513.03;;;14.50;44.97
53900;BME280;40509;32.858;-116.858;2023-02-27T14:38:58;98506.47;;;14.45;45.15
53900;BME280;40509;32.858;-116.858;2023-02-27T14:44:20;98505.44;;;14.47;44.99
53900;BME280;40509;32.858;-116.858;2023-02-27T14:46:50;98508.19;;;14.44;45.02
53900;BME280;40509;32.858;-116.858;2023-02-27T14:49:25;98512.13;;;14.52;44.92
53900;BME280;40509;32.858;-116.858;2023-02-27T14:51:58;98513.78;;;14.53;44.86
53900;BME280;40509;32.858;-116.858;2023-02-27T14:54:39;98510.25;;;14.54;44.77
53900;BME280;40509;32.858;-116.858;2023-02-27T14:57:20;98511.47;;;14.48;44.67
53900;BME280;40509;32.858;-116.858;2023-02-27T14:59:50;98520.09;;;14.48;44.69
53900;BME280;40509;32.858;-116.858;2023-02-27T15:02:24;98515.63;;;14.50;44.67
53900;BME280;40509;32.858;-116.858;2023-02-27T15:07:30;98524.53;;;14.46;44.91
53900;BME280;40509;32.858;-116.858;2023-02-27T15:10:01;98520.19;;;14.47;44.91
53900;BME280;40509;32.858;-116.858;2023-02-27T15:12:30;98528.25;;;14.57;44.76
53900;BME280;40509;32.858;-116.858;2023-02-27T15:14:59;98529.44;;;14.51;44.82
53900;BME280;40509;32.858;-116.858;2023-02-27T15:17:40;98536.03;;;14.42;44.94
53900;BME280;40509;32.858;-116.858;2023-02-27T15:20:32;98530.56;;;14.47;44.60
53900;BME280;40509;32.858;-116.858;2023-02-27T15:23:17;98533.25;;;14.45;44.71
53900;BME280;40509;32.858;-116.858;2023-02-27T15:25:45;98542.28;;;14.54;44.50
53900;BME280;40509;32.858;-116.858;2023-02-27T15:28:22;98546.44;;;14.57;44.62
53900;BME280;40509;32.858;-116.858;2023-02-27T15:30:52;98549.38;;;14.66;44.11